Time;durP1;ratioP1;P1;durP2;ratioP2;P2;SDS_P1;SDS_P2;PMS_P1;PMS_P2;Temp;Humidity;BMP_temperature;BMP_pressure;BME280_temperature;BME280_humidity;BME280_pressure;Samples;Min_cycle;Max_cycle;Signal;HPM_P1;HPM_P2
2023/08/01 00:01:30;;;;;;;10.43;4.90;;;;;;;20.13;72.83;92258.53;2046659;70;20138;-78
2023/08/01 00:03:56;;;;;;;8.20;4.43;;;;;;;20.17;71.74;92263.59;2047892;70;20147;-78
2023/08/01 00:06:24;;;;;;;8.00;4.85;;;;;;;20.15;71.56;92263.56;2044538;70;20150;-78
2023/08/01 00:08:50;;;;;;;9.85;5.40;;;;;;;19.92;73.56;92254.56;2047914;70;20548;-77
2023/08/01 00:11:16;;;;;;;7.13;4.88;;;;;;;20.00;73.17;92243.28;2047617;70;20158;-79
2023/08/01 00:13:43;;;;;;;8.68;4.72;;;;;;;19.98;73.58;92239.69;2047635;70;20258;-79
2023/08/01 00:16:09;;;;;;;7.90;4.68;;;;;;;19.99;71.89;92224.00;2041754;70;20134;-80
2023/08/01 00:18:35;;;;;;;7.68;4.85;;;;;;;19.99;73.52;92235.44;2047990;70;20143;-78
2023/08/01 00:21:02;;;;;;;6.60;4.72;;;;;;;19.97;72.99;92236.09;2047783;70;20155;-79
2023/08/01 00:23:28;;;;;;;7.10;4.93;;;;;;;19.97;73.83;92238.94;2047833;70;20965;-79
2023/08/01 00:25:54;;;;;;;9.18;5.28;;;;;;;20.09;72.81;92246.31;2047774;70;20162;-79
2023/08/01 00:28:22;;;;;;;8.73;5.43;;;;;;;19.90;72.46;92223.13;2044510;70;20193;-79
2023/08/01 00:30:47;;;;;;;9.95;4.90;;;;;;;19.89;74.00;92227.38;2044536;70;20151;-79
2023/08/01 00:33:14;;;;;;;8.57;4.95;;;;;;;19.95;74.07;92223.91;2047619;70;20151;-80
2023/08/01 00:35:40;;;;;;;10.45;4.82;;;;;;;19.77;75.00;92213.59;2044680;70;20281;-79
2023/08/01 00:38:06;;;;;;;7.07;4.68;;;;;;;19.91;74.36;92223.84;2044722;70;20492;-79
2023/08/01 00:40:32;;;;;;;6.68;4.47;;;;;;;19.92;73.87;92226.00;2048297;70;20626;-79
2023/08/01 00:42:58;;;;;;;9.27;4.53;;;;;;;19.96;72.95;92223.22;2041848;70;20138;-80
2023/08/01 00:45:26;;;;;;;8.10;4.78;;;;;;;19.91;74.32;92221.69;2047841;70;20147;-81
2023/08/01 00:47:52;;;;;;;8.90;5.30;;;;;;;19.93;73.99;92221.75;2044515;70;20169;-79
2023/08/01 00:50:20;;;;;;;7.95;4.65;;;;;;;19.89;73.38;92209.53;2047828;70;20166;-80
2023/08/01 00:52:51;;;;;;;6.90;4.60;;;;;;;19.83;74.82;92206.53;2047895;70;20134;-79
2023/08/01 00:55:18;;;;;;;8.52;4.78;;;;;;;19.80;74.92;92206.53;2044504;70;20153;-80
2023/08/01 00:57:43;;;;;;;8.98;4.75;;;;;;;19.78;74.65;92177.91;2047962;70;20143;-77
2023/08/01 01:00:09;;;;;;;9.20;5.20;;;;;;;19.86;74.59;92174.47;2044212;70;20192;-77
2023/08/01 01:02:36;;;;;;;6.85;5.00;;;;;;;19.76;74.60;92177.16;2044152;70;20158;-77
2023/08/01 01:05:02;;;;;;;9.63;5.00;;;;;;;19.66;75.42;92157.72;2044471;70;20149;-77
2023/08/01 01:07:30;;;;;;;8.68;5.32;;;;;;;19.42;76.09;92152.22;2047898;70;20165;-77
2023/08/01 01:09:56;;;;;;;9.15;4.88;;;;;;;19.38;77.00;92155.03;2047690;70;20569;-80
2023/08/01 01:12:22;;;;;;;8.15;5.15;;;;;;;19.58;75.79;92160.38;2047631;70;20154;-80
2023/08/01 01:14:47;;;;;;;11.10;4.45;;;;;;;19.59;74.79;92155.41;2043583;70;20162;-80
2023/08/01 01:17:13;;;;;;;9.57;5.15;;;;;;;19.57;74.86;92141.81;2044059;70;20158;-79
2023/08/01 01:19:39;;;;;;;8.65;5.20;;;;;;;19.55;75.82;92142.47;2044328;70;20170;-78
2023/08/01 01:22:07;;;;;;;7.45;5.07;;;;;;;19.30;76.62;92141.31;2047552;70;20186;-79
2023/08/01 01:24:35;;;;;;;9.80;5.10;;;;;;;19.38;75.93;92132.19;2047454;70;20166;-79
2023/08/01 01:27:03;;;;;;;6.65;4.70;;;;;;;19.48;75.49;92125.94;2044318;70;20151;-80
2023/08/01 01:29:29;;;;;;;7.43;5.18;;;;;;;19.40;75.96;92115.09;2047634;70;20150;-80
2023/08/01 01:32:00;;;;;;;7.88;4.57;;;;;;;19.37;76.38;92116.44;2044406;70;20166;-80
2023/08/01 01:34:27;;;;;;;6.82;4.80;;;;;;;19.37;76.60;92105.03;2047777;70;20178;-80
2023/08/01 01:36:52;;;;;;;6.07;5.03;;;;;;;19.15;76.40;92102.50;2047852;70;20150;-77
2023/08/01 01:39:18;;;;;;;9.60;4.93;;;;;;;19.23;76.67;92105.50;2044417;70;20154;-77
2023/08/01 01:41:44;;;;;;;7.00;4.68;;;;;;;19.33;76.45;92113.50;2041683;70;20613;-77
2023/08/01 01:44:10;;;;;;;8.93;4.97;;;;;;;19.29;76.83;92107.75;2041712;70;20261;-78
2023/08/01 01:46:36;;;;;;;9.25;5.45;;;;;;;19.39;75.26;92090.09;2044234;70;20159;-79
2023/08/01 01:49:01;;;;;;;7.63;4.90;;;;;;;19.41;75.69;92090.84;2047664;70;20230;-79
2023/08/01 01:51:28;;;;;;;7.07;4.68;;;;;;;19.40;76.15;92092.25;2047669;70;20146;-78
2023/08/01 01:53:53;;;;;;;8.73;4.95;;;;;;;19.34;75.91;92088.59;2047768;70;20163;-79
2023/08/01 01:56:19;;;;;;;7.60;5.07;;;;;;;19.39;75.27;92076.56;2044252;70;20174;-78
2023/08/01 01:58:45;;;;;;;7.18;4.90;;;;;;;19.29;76.41;92059.97;2044077;70;20544;-79
2023/08/01 02:01:11;;;;;;;9.40;4.88;;;;;;;19.37;72.73;92059.38;2047550;70;20223;-79
2023/08/01 02:03:37;;;;;;;9.82;5.00;;;;;;;19.23;75.80;92048.44;2044233;70;20648;-78
2023/08/01 02:06:03;;;;;;;7.22;4.93;;;;;;;19.32;75.51;92043.59;2044351;70;20709;-78
2023/08/01 02:08:30;;;;;;;9.30;5.00;;;;;;;19.24;75.60;92041.34;2047642;70;20182;-79
2023/08/01 02:10:57;;;;;;;7.55;4.82;;;;;;;19.23;75.48;92039.16;2047936;70;20154;-79
2023/08/01 02:13:28;;;;;;;6.75;4.50;;;;;;;19.26;75.47;92041.34;2048096;70;20668;-79
2023/08/01 02:15:54;;;;;;;6.90;4.63;;;;;;;19.25;75.02;92022.06;2048286;70;20620;-80
2023/08/01 02:18:20;;;;;;;8.25;4.95;;;;;;;19.25;75.51;92016.38;2045010;70;20644;-79
2023/08/01 02:20:45;;;;;;;7.50;4.68;;;;;;;19.19;75.31;92011.25;2045041;70;20181;-80
2023/08/01 02:23:11;;;;;;;5.57;4.80;;;;;;;19.16;75.93;92009.78;2045043;70;20139;-79
2023/08/01 02:25:41;;;;;;;6.72;4.97;;;;;;;19.13;75.88;92002.59;2044981;70;20605;-79
2023/08/01 02:28:07;;;;;;;7.50;4.47;;;;;;;18.98;77.29;92001.63;2044993;70;20235;-79
2023/08/01 02:30:35;;;;;;;6.65;4.45;;;;;;;19.09;76.11;92013.22;2042329;70;20603;-79
2023/08/01 02:33:01;;;;;;;7.72;4.55;;;;;;;18.93;77.48;92014.38;2045003;70;20237;-78
2023/08/01 02:35:28;;;;;;;7.25;4.90;;;;;;;18.87;75.75;92005.69;2048503;70;20230;-79
2023/08/01 02:37:54;;;;;;;7.38;5.00;;;;;;;18.58;79.27;91997.97;2042290;70;20225;-79
2023/08/01 02:40:19;;;;;;;10.15;5.25;;;;;;;18.83;77.05;91999.16;2048303;70;20147;-79
2023/08/01 02:42:45;;;;;;;10.65;4.90;;;;;;;18.88;76.38;91995.75;2047827;70;20151;-79
2023/08/01 02:45:10;;;;;;;6.78;5.00;;;;;;;18.87;75.88;91987.84;2048285;70;20147;-79
2023/08/01 02:47:36;;;;;;;9.75;5.45;;;;;;;18.76;77.37;91989.78;2048309;70;20155;-79
2023/08/01 02:50:02;;;;;;;10.07;5.00;;;;;;;18.75;77.38;91988.34;2048261;70;20142;-79
2023/08/01 02:52:28;;;;;;;8.73;5.38;;;;;;;18.71;77.73;91979.72;2042249;70;20250;-79
2023/08/01 02:54:54;;;;;;;8.95;4.63;;;;;;;18.61;78.13;91968.81;2044975;70;20138;-80
2023/08/01 02:57:19;;;;;;;8.02;4.85;;;;;;;18.69;77.61;91969.00;2044963;70;20174;-79
2023/08/01 02:59:45;;;;;;;9.32;4.28;;;;;;;18.70;77.03;91984.69;2044862;70;20525;-80
2023/08/01 03:02:12;;;;;;;7.50;4.43;;;;;;;18.66;77.18;91978.88;2048157;70;20255;-80
2023/08/01 03:04:38;;;;;;;7.90;4.80;;;;;;;18.66;77.39;91976.03;2048405;70;20548;-80
2023/08/01 03:07:03;;;;;;;6.03;4.60;;;;;;;18.78;76.67;91995.53;2044962;70;20143;-80
2023/08/01 03:09:29;;;;;;;8.60;5.03;;;;;;;18.66;76.88;91990.28;2042255;70;20146;-80
2023/08/01 03:11:55;;;;;;;7.72;4.90;;;;;;;18.65;76.63;91991.72;2044930;70;20154;-80
2023/08/01 03:14:20;;;;;;;8.27;4.80;;;;;;;18.54;77.80;91984.34;2048086;70;20220;-80
2023/08/01 03:16:46;;;;;;;7.38;4.50;;;;;;;18.54;77.85;91987.91;2048316;70;20147;-80
2023/08/01 03:19:11;;;;;;;8.18;4.65;;;;;;;18.63;77.75;91983.09;2048160;70;20133;-80
2023/08/01 03:21:37;;;;;;;11.23;5.10;;;;;;;18.63;77.58;91973.81;2048109;70;20138;-80
2023/08/01 03:24:08;;;;;;;8.45;4.95;;;;;;;18.69;76.80;91963.31;2044872;70;20517;-80
2023/08/01 03:26:35;;;;;;;12.00;5.32;;;;;;;18.68;76.10;91961.81;2048158;70;20146;-80
2023/08/01 03:29:00;;;;;;;7.07;5.22;;;;;;;18.65;76.61;91965.31;2044821;70;20166;-80
2023/08/01 03:31:27;;;;;;;7.95;5.22;;;;;;;18.65;77.09;91966.06;2042200;70;20147;-80
2023/08/01 03:33:53;;;;;;;10.35;4.60;;;;;;;18.58;77.47;91960.91;2048309;70;20245;-80
2023/08/01 03:36:18;;;;;;;10.15;4.80;;;;;;;18.57;77.74;91965.88;2048175;70;20207;-80
2023/08/01 03:38:44;;;;;;;8.85;5.00;;;;;;;18.54;77.85;91962.25;2044879;70;20174;-80
2023/08/01 03:41:10;;;;;;;10.05;5.45;;;;;;;18.37;78.69;91951.97;2048286;70;20190;-80
2023/08/01 03:43:36;;;;;;;7.15;5.47;;;;;;;18.40;79.24;91953.44;2044781;70;20300;-80
2023/08/01 03:46:02;;;;;;;9.95;6.90;;;;;;;18.26;80.37;91953.16;2044853;70;20142;-80
2023/08/01 03:48:27;;;;;;;7.03;5.47;;;;;;;18.35;79.81;91956.88;2044865;70;20625;-80
2023/08/01 03:50:53;;;;;;;5.78;4.97;;;;;;;18.46;78.76;91956.41;2044725;70;20146;-80
2023/08/01 03:53:19;;;;;;;8.80;5.43;;;;;;;18.49;78.54;91957.16;2048115;70;20130;-80
2023/08/01 03:55:44;;;;;;;8.73;5.35;;;;;;;18.56;77.50;91958.75;2039089;70;20181;-80
2023/08/01 03:58:10;;;;;;;9.80;5.35;;;;;;;18.52;77.93;91964.38;2042060;70;20640;-80
2023/08/01 04:00:35;;;;;;;7.47;5.30;;;;;;;18.44;78.69;91955.66;2044706;70;20189;-80
2023/08/01 04:03:01;;;;;;;10.55;5.30;;;;;;;18.40;79.79;91952.72;2044872;70;20127;-81
2023/08/01 04:05:28;;;;;;;10.10;5.13;;;;;;;18.47;78.10;91949.31;2044780;70;20150;-80
2023/08/01 04:07:57;;;;;;;8.75;5.18;;;;;;;18.45;78.24;91942.84;2048091;70;20214;-80
2023/08/01 04:10:23;;;;;;;12.40;4.90;;;;;;;18.57;77.88;91959.47;2048100;70;20142;-80
2023/08/01 04:12:49;;;;;;;7.55;4.90;;;;;;;18.52;78.22;91956.53;2048117;70;20157;-80
2023/08/01 04:15:15;;;;;;;7.80;5.43;;;;;;;18.40;79.78;91944.88;2047988;70;20146;-80
2023/08/01 04:17:40;;;;;;;9.77;5.30;;;;;;;18.45;79.45;91942.84;2042088;70;20234;-80
2023/08/01 04:20:07;;;;;;;9.95;5.40;;;;;;;18.39;78.59;91951.28;2048112;70;20501;-80
2023/08/01 04:22:32;;;;;;;9.85;5.25;;;;;;;18.46;78.54;91944.28;2048074;70;20151;-80
2023/08/01 04:24:58;;;;;;;8.68;5.40;;;;;;;18.45;78.54;91945.69;2048143;70;20600;-80
2023/08/01 04:27:24;;;;;;;6.68;4.78;;;;;;;18.51;78.54;91946.53;2048036;70;20612;-80
2023/08/01 04:29:49;;;;;;;7.68;4.88;;;;;;;18.43;77.53;91929.28;2044693;70;20430;-80
2023/08/01 04:32:15;;;;;;;8.93;5.30;;;;;;;18.51;78.54;91940.13;2048064;70;20227;-80
2023/08/01 04:34:41;;;;;;;8.85;4.93;;;;;;;18.54;78.31;91941.59;2047866;70;20218;-80
2023/08/01 04:37:07;;;;;;;9.20;5.20;;;;;;;18.49;79.21;91934.38;2048036;70;20159;-80
2023/08/01 04:39:33;;;;;;;7.20;5.13;;;;;;;18.45;78.97;91937.16;2048027;70;20188;-80
2023/08/01 04:41:59;;;;;;;7.70;4.80;;;;;;;18.46;79.01;91938.56;2048117;70;20478;-79
2023/08/01 04:44:25;;;;;;;9.23;5.15;;;;;;;18.51;79.02;91942.97;2047895;70;20242;-80
2023/08/01 04:46:50;;;;;;;10.65;5.50;;;;;;;18.42;78.46;91935.69;2047988;70;20157;-79
2023/08/01 04:49:16;;;;;;;7.13;4.88;;;;;;;18.56;78.43;91935.22;2048046;70;20190;-80
2023/08/01 04:51:41;;;;;;;7.40;4.78;;;;;;;18.65;78.00;91936.81;2050242;70;20143;-80
2023/08/01 04:54:07;;;;;;;8.50;5.07;;;;;;;18.63;77.97;91940.34;2048967;70;20147;-81
2023/08/01 04:56:32;;;;;;;7.13;5.13;;;;;;;18.60;77.95;91935.28;2048051;70;20153;-80
2023/08/01 04:58:58;;;;;;;9.95;5.38;;;;;;;18.59;77.99;91933.84;2047852;70;20139;-80
2023/08/01 05:01:23;;;;;;;9.52;6.60;;;;;;;18.48;78.87;91916.56;2044660;70;20600;-80
2023/08/01 05:03:49;;;;;;;9.73;5.57;;;;;;;18.45;79.18;91920.75;2048011;70;20150;-81
2023/08/01 05:06:14;;;;;;;7.60;5.55;;;;;;;18.47;78.89;91915.13;2042121;70;20261;-79
2023/08/01 05:08:40;;;;;;;8.88;5.80;;;;;;;18.55;78.51;91908.84;2047982;70;20163;-81
2023/08/01 05:11:05;;;;;;;8.50;6.20;;;;;;;18.56;78.65;91909.56;2048099;70;20139;-81
2023/08/01 05:13:31;;;;;;;10.23;6.20;;;;;;;18.38;79.34;91898.56;2047943;70;20583;-81
2023/08/01 05:15:57;;;;;;;10.40;5.45;;;;;;;18.47;78.81;91903.00;2044841;70;20154;-81
2023/08/01 05:18:22;;;;;;;7.57;5.38;;;;;;;18.50;77.62;91908.03;2044835;70;20212;-80
2023/08/01 05:20:49;;;;;;;8.15;5.40;;;;;;;18.54;78.01;91924.50;2044598;70;20214;-81
2023/08/01 05:23:14;;;;;;;7.28;5.72;;;;;;;18.50;79.10;91924.41;2047947;70;20135;-80
2023/08/01 05:25:40;;;;;;;8.05;5.40;;;;;;;18.53;78.70;91918.06;2044622;70;20547;-80
2023/08/01 05:28:09;;;;;;;8.20;5.47;;;;;;;18.25;79.58;91906.84;2047930;70;20577;-82
2023/08/01 05:30:34;;;;;;;9.85;5.72;;;;;;;18.31;79.64;91916.91;2044665;70;20585;-81
2023/08/01 05:33:00;;;;;;;8.93;5.68;;;;;;;18.40;79.42;91933.50;2047878;70;20156;-81
2023/08/01 05:35:26;;;;;;;7.55;5.43;;;;;;;18.62;79.29;91923.94;2047913;70;20582;-80
2023/08/01 05:37:51;;;;;;;8.27;5.47;;;;;;;18.48;79.99;91902.31;2047834;70;20688;-80
2023/08/01 05:40:17;;;;;;;9.52;6.57;;;;;;;18.37;80.36;91899.94;2048006;70;20149;-80
2023/08/01 05:42:42;;;;;;;11.27;7.15;;;;;;;18.54;79.64;91899.56;2047892;70;20249;-80
2023/08/01 05:45:08;;;;;;;13.15;6.28;;;;;;;18.55;79.57;91894.59;2047910;70;20527;-80
2023/08/01 05:47:36;;;;;;;7.82;5.95;;;;;;;18.58;77.73;91884.66;2048394;70;20151;-80
2023/08/01 05:50:02;;;;;;;8.27;5.95;;;;;;;18.61;77.86;91888.28;2048479;70;20138;-80
2023/08/01 05:52:27;;;;;;;12.35;5.82;;;;;;;18.56;79.87;91898.19;2048620;70;20576;-80
2023/08/01 05:54:53;;;;;;;8.90;5.80;;;;;;;18.56;79.92;91887.50;2048452;70;20150;-80
2023/08/01 05:57:19;;;;;;;10.55;5.20;;;;;;;18.68;75.12;91901.94;2048334;70;20139;-80
2023/08/01 05:59:44;;;;;;;11.93;7.22;;;;;;;18.24;80.45;91916.09;2048377;70;20608;-82
2023/08/01 06:02:10;;;;;;;10.10;7.30;;;;;;;17.84;83.33;91913.13;2045173;70;20177;-81
2023/08/01 06:04:36;;;;;;;9.32;6.13;;;;;;;18.22;81.17;91908.22;2048491;70;20521;-81
2023/08/01 06:07:01;;;;;;;9.25;6.20;;;;;;;18.36;81.67;91915.59;2048320;70;20538;-80
2023/08/01 06:09:28;;;;;;;8.93;6.35;;;;;;;18.39;81.08;91937.75;2048411;70;20250;-81
2023/08/01 06:11:54;;;;;;;13.38;6.20;;;;;;;18.48;79.65;91935.78;2048385;70;20141;-82
2023/08/01 06:14:19;;;;;;;11.50;6.70;;;;;;;18.42;81.46;91922.16;2045031;70;20134;-81
2023/08/01 06:16:45;;;;;;;8.73;5.53;;;;;;;18.54;80.15;91925.22;2048460;70;20712;-81
2023/08/01 06:19:10;;;;;;;9.02;5.35;;;;;;;18.49;80.21;91942.94;2048343;70;20219;-81
2023/08/01 06:21:36;;;;;;;10.70;5.18;;;;;;;18.50;80.55;91935.81;2048388;70;20589;-81
2023/08/01 06:24:01;;;;;;;8.65;5.70;;;;;;;18.16;82.34;91925.19;2048201;70;20174;-81
2023/08/01 06:26:28;;;;;;;11.45;5.78;;;;;;;18.29;81.82;91929.72;2047776;70;20134;-82
2023/08/01 06:28:53;;;;;;;9.02;5.50;;;;;;;18.46;81.83;91935.72;2042130;70;20158;-81
2023/08/01 06:31:22;;;;;;;9.85;4.70;;;;;;;18.57;80.01;91925.25;2045132;70;20139;-81
2023/08/01 06:33:48;;;;;;;8.90;4.97;;;;;;;18.60;80.20;91929.56;2048101;70;20253;-82
2023/08/01 06:36:16;;;;;;;8.88;5.60;;;;;;;18.36;81.14;91922.00;2048235;70;20159;-81
2023/08/01 06:38:42;;;;;;;13.10;6.10;;;;;;;18.39;81.96;91888.59;2048422;70;20585;-80
2023/08/01 06:41:07;;;;;;;8.25;5.30;;;;;;;18.59;80.73;91908.19;2048352;70;20238;-80
2023/08/01 06:43:34;;;;;;;10.20;6.40;;;;;;;18.59;80.80;91908.19;2048319;70;20139;-80
2023/08/01 06:45:59;;;;;;;10.13;6.68;;;;;;;18.71;79.80;91912.03;2048302;70;20650;-82
2023/08/01 06:48:25;;;;;;;8.75;6.65;;;;;;;18.68;80.71;91918.34;2048281;70;20174;-81
2023/08/01 06:50:51;;;;;;;10.88;5.68;;;;;;;18.70;79.62;91921.25;2047761;70;20671;-81
2023/08/01 06:53:17;;;;;;;6.78;5.05;;;;;;;18.71;80.34;91912.03;2048268;70;20130;-84
2023/08/01 06:55:42;;;;;;;7.43;4.65;;;;;;;18.71;79.87;91911.31;2048389;70;20656;-84
2023/08/01 06:58:08;;;;;;;5.20;4.03;;;;;;;18.57;79.62;91906.03;2048097;70;20154;-82
2023/08/01 07:00:33;;;;;;;5.68;4.22;;;;;;;18.66;80.59;91892.66;2048123;70;20589;-81
2023/08/01 07:02:59;;;;;;;6.32;4.70;;;;;;;18.70;80.75;91867.09;2044995;70;20138;-86
2023/08/01 07:05:25;;;;;;;8.35;5.07;;;;;;;18.72;80.39;91873.53;2048256;70;20178;-85
2023/08/01 07:07:50;;;;;;;10.40;6.13;;;;;;;18.74;81.14;91872.88;2048346;70;20170;-86
2023/08/01 07:10:16;;;;;;;9.10;4.95;;;;;;;18.77;79.65;91857.94;2048252;70;20130;-85
2023/08/01 07:12:41;;;;;;;9.30;5.93;;;;;;;18.50;79.97;91871.00;2048357;70;20146;-85
2023/08/01 07:15:08;;;;;;;7.75;5.28;;;;;;;18.51;80.32;91885.97;2048174;70;20143;-85
2023/08/01 07:17:33;;;;;;;7.90;5.18;;;;;;;18.69;79.98;91879.91;2045012;70;20230;-90
2023/08/01 07:19:59;;;;;;;7.45;5.07;;;;;;;18.61;79.88;91876.91;2048217;70;20302;-86
2023/08/01 07:22:25;;;;;;;6.72;5.05;;;;;;;18.71;80.44;91877.81;2048429;70;20241;-86
2023/08/01 07:24:54;;;;;;;7.50;4.80;;;;;;;18.95;78.66;91877.50;2048356;70;20248;-88
2023/08/01 07:27:20;;;;;;;8.00;4.63;;;;;;;18.92;81.09;91870.34;2048230;70;20597;-87
2023/08/01 07:29:46;;;;;;;6.30;4.47;;;;;;;19.23;78.85;91871.53;2048135;70;20138;-87
2023/08/01 07:32:11;;;;;;;6.93;4.63;;;;;;;19.37;77.66;91858.91;2048166;70;20146;-86
2023/08/01 07:34:37;;;;;;;6.15;4.40;;;;;;;19.51;78.33;91867.66;2048257;70;20150;-85
2023/08/01 07:37:03;;;;;;;6.38;4.30;;;;;;;19.65;76.39;91861.47;2048160;70;20184;-86
2023/08/01 07:39:28;;;;;;;6.75;5.35;;;;;;;19.71;76.31;91862.28;2048231;70;20596;-88
2023/08/01 07:41:55;;;;;;;9.45;4.90;;;;;;;19.82;76.21;91863.13;2048291;70;20150;-87
2023/08/01 07:44:24;;;;;;;6.00;4.50;;;;;;;19.97;74.64;91861.88;2048174;70;20607;-86
2023/08/01 07:46:50;;;;;;;8.65;4.88;;;;;;;19.44;76.98;91857.59;2046659;70;20147;-92
2023/08/01 07:49:16;;;;;;;6.82;5.00;;;;;;;19.89;76.07;91847.53;2044942;70;20516;-88
2023/08/01 07:51:42;;;;;;;6.80;4.95;;;;;;;19.95;76.38;91853.31;2048298;70;20150;-88
2023/08/01 07:54:10;;;;;;;9.07;4.65;;;;;;;20.10;74.99;91862.75;2048109;70;20510;-84
2023/08/01 07:56:35;;;;;;;8.40;4.70;;;;;;;20.08;75.37;91847.75;2048113;70;20272;-86
2023/08/01 07:59:01;;;;;;;6.78;4.93;;;;;;;20.19;74.57;91857.88;2048018;70;20724;-85
2023/08/01 08:01:26;;;;;;;5.75;4.55;;;;;;;20.30;75.18;91848.72;2048051;70;20681;-88
2023/08/01 08:03:53;;;;;;;6.03;4.80;;;;;;;20.31;75.51;91841.59;2048083;70;20150;-87
2023/08/01 08:06:21;;;;;;;5.45;4.50;;;;;;;20.17;77.08;91838.56;2048275;70;20146;-88
2023/08/01 08:08:47;;;;;;;6.03;4.05;;;;;;;20.19;75.05;91835.72;2048214;70;20174;-87
2023/08/01 08:11:12;;;;;;;5.80;4.10;;;;;;;20.07;74.70;91838.47;2048155;70;20139;-87
2023/08/01 08:13:38;;;;;;;5.72;4.25;;;;;;;19.91;76.11;91858.25;2048072;70;20593;-88
2023/08/01 08:16:05;;;;;;;6.30;4.38;;;;;;;19.96;77.16;91843.31;2048140;70;20242;-87
2023/08/01 08:18:30;;;;;;;7.10;4.88;;;;;;;20.08;75.60;91813.47;2048164;70;20299;-88
2023/08/01 08:20:56;;;;;;;5.93;4.70;;;;;;;19.60;76.51;91817.13;2048159;70;20250;-85
2023/08/01 08:23:21;;;;;;;7.22;4.80;;;;;;;19.61;75.93;91825.03;2048293;70;20162;-87
2023/08/01 08:25:47;;;;;;;5.90;4.32;;;;;;;19.86;76.43;91831.06;2048138;70;20154;-86
2023/08/01 08:28:13;;;;;;;7.30;4.40;;;;;;;20.13;76.13;91826.38;2048064;70;20147;-89
2023/08/01 08:30:39;;;;;;;6.72;4.25;;;;;;;20.19;75.36;91824.31;2048321;70;20154;-88
2023/08/01 08:33:06;;;;;;;5.90;4.00;;;;;;;20.30;76.09;91823.00;2048045;70;20182;-88
2023/08/01 08:35:35;;;;;;;5.93;4.47;;;;;;;20.39;75.90;91835.25;2048037;70;20155;-89
2023/08/01 08:38:03;;;;;;;6.55;4.20;;;;;;;20.41;74.43;91851.69;2048181;70;20621;-86
2023/08/01 08:40:31;;;;;;;6.50;4.68;;;;;;;20.13;73.90;91855.66;2048016;70;20147;-86
2023/08/01 08:43:03;;;;;;;9.85;4.75;;;;;;;20.01;75.07;91849.81;2048023;70;20236;-86
2023/08/01 08:45:32;;;;;;;6.68;4.65;;;;;;;20.60;73.85;91844.78;2048173;70;20688;-87
2023/08/01 08:48:03;;;;;;;7.07;4.70;;;;;;;20.88;74.37;91846.47;2048056;70;20556;-85
2023/08/01 08:50:30;;;;;;;7.25;4.70;;;;;;;21.24;73.67;91831.75;2044994;70;20166;-89
2023/08/01 08:52:57;;;;;;;8.50;4.40;;;;;;;21.42;73.52;91837.63;2048017;70;20145;-89
2023/08/01 08:55:26;;;;;;;7.75;4.60;;;;;;;21.12;72.99;91837.38;2048299;70;20163;-91
2023/08/01 08:57:52;;;;;;;7.05;4.40;;;;;;;21.36;69.63;91834.72;2044757;70;20143;-91
2023/08/01 09:00:19;;;;;;;5.32;4.28;;;;;;;21.05;70.77;91820.16;2044710;70;20143;-85
2023/08/01 09:02:45;;;;;;;6.15;4.35;;;;;;;20.41;74.17;91820.97;2045218;70;20186;-91
2023/08/01 09:05:12;;;;;;;8.57;5.00;;;;;;;20.87;74.06;91807.84;2046591;70;20326;-91
2023/08/01 09:07:44;;;;;;;8.05;4.88;;;;;;;21.02;73.02;91815.84;2045366;70;20290;-89
2023/08/01 09:10:09;;;;;;;5.05;4.18;;;;;;;21.91;68.20;91820.72;2045095;70;20184;-91
2023/08/01 09:12:36;;;;;;;5.72;4.03;;;;;;;22.02;69.30;91816.47;2044983;70;20138;-91
2023/08/01 09:15:01;;;;;;;5.75;4.18;;;;;;;22.01;67.90;91825.78;2038814;70;20582;-89
2023/08/01 09:17:27;;;;;;;6.13;4.25;;;;;;;22.07;67.62;91823.66;2041523;70;20514;-90
2023/08/01 09:20:05;;;;;;;4.93;3.63;;;;;;;21.51;66.61;91826.94;2044665;70;20167;-90
2023/08/01 09:22:41;;;;;;;6.00;4.00;;;;;;;21.52;67.53;91829.09;2041360;70;20167;-87
2023/08/01 09:25:07;;;;;;;5.80;4.30;;;;;;;21.40;67.95;91831.19;2044621;70;20182;-89
2023/08/01 09:27:33;;;;;;;10.25;4.30;;;;;;;21.57;68.07;91833.41;2044728;70;20538;-89
2023/08/01 09:30:15;;;;;;;5.43;4.35;;;;;;;21.49;68.09;91844.84;2044791;70;20601;-89
2023/08/01 09:32:51;;;;;;;4.75;4.13;;;;;;;21.51;70.73;91833.41;2040742;70;20615;-87
2023/08/01 09:35:16;;;;;;;5.32;4.45;;;;;;;21.72;71.61;91819.22;2044669;70;20157;-90
2023/08/01 09:37:43;;;;;;;5.85;3.97;;;;;;;22.11;69.01;91814.38;2044736;70;20139;-89
2023/08/01 09:40:09;;;;;;;5.78;3.75;;;;;;;22.20;69.78;91810.13;2041619;70;20625;-89
2023/08/01 09:42:43;;;;;;;8.60;4.25;;;;;;;22.31;67.56;91805.88;2045202;70;20222;-87
2023/08/01 09:45:18;;;;;;;6.50;4.22;;;;;;;22.37;69.53;91810.91;2044155;70;20238;-89
2023/08/01 09:47:45;;;;;;;7.80;3.95;;;;;;;22.30;69.84;91804.41;2043527;70;20151;-85
2023/08/01 09:50:13;;;;;;;6.25;4.65;;;;;;;21.89;69.11;91797.06;2043259;70;20553;-90
2023/08/01 09:52:39;;;;;;;8.32;4.90;;;;;;;21.48;70.82;91800.44;2043240;70;20147;-89
2023/08/01 09:55:05;;;;;;;6.90;5.32;;;;;;;21.29;71.03;91805.31;2043109;70;20160;-88
2023/08/01 09:57:31;;;;;;;11.68;6.50;;;;;;;20.50;74.57;91822.53;2040200;70;20160;-85
2023/08/01 09:59:57;;;;;;;8.20;5.55;;;;;;;20.61;75.81;91839.78;2043993;70;20238;-86
2023/08/01 10:02:26;;;;;;;7.30;5.85;;;;;;;20.77;73.90;91842.81;2044507;70;20140;-90
2023/08/01 10:04:57;;;;;;;9.98;6.13;;;;;;;20.67;73.20;91826.28;2044854;70;20234;-90
2023/08/01 10:07:28;;;;;;;14.00;6.50;;;;;;;20.71;72.83;91820.59;2044656;70;20217;-92
2023/08/01 10:09:55;;;;;;;10.55;7.03;;;;;;;20.23;75.20;91815.06;2044655;70;20176;-92
2023/08/01 10:12:25;;;;;;;10.23;7.25;;;;;;;20.63;73.33;91808.34;2044796;70;20169;-88
2023/08/01 10:14:51;;;;;;;11.75;7.65;;;;;;;20.54;73.59;91814.00;2044638;70;20678;-89
2023/08/01 10:17:18;;;;;;;9.50;6.97;;;;;;;20.42;75.15;91830.97;2044715;70;20147;-89
2023/08/01 10:19:44;;;;;;;9.95;6.82;;;;;;;20.67;74.65;91805.53;2049063;70;20202;-85
2023/08/01 10:22:10;;;;;;;8.23;6.97;;;;;;;20.33;74.02;91797.31;2047953;70;20195;-88
2023/08/01 10:24:37;;;;;;;9.48;6.65;;;;;;;20.39;73.82;91783.81;2045551;70;20143;-89
2023/08/01 10:27:15;;;;;;;13.48;7.45;;;;;;;20.28;77.18;91787.97;2041512;70;20147;-88
2023/08/01 10:29:42;;;;;;;10.40;7.00;;;;;;;20.74;75.86;91787.00;2044504;70;20140;-88
2023/08/01 10:32:08;;;;;;;8.32;6.30;;;;;;;21.85;72.26;91791.31;2044559;70;20163;-89
2023/08/01 10:34:34;;;;;;;7.47;6.10;;;;;;;22.72;68.87;91802.38;2045032;70;20234;-88
2023/08/01 10:37:01;;;;;;;10.73;6.78;;;;;;;24.02;67.12;91816.69;2045179;70;20601;-91
2023/08/01 10:39:27;;;;;;;7.05;5.40;;;;;;;25.36;61.27;91808.75;2045114;70;20153;-90
2023/08/01 10:42:05;;;;;;;7.57;5.10;;;;;;;24.72;59.71;91804.88;2045071;70;20139;-91
2023/08/01 10:44:33;;;;;;;5.28;4.20;;;;;;;24.48;57.48;91802.84;2044951;70;20273;-90
2023/08/01 10:47:01;;;;;;;5.15;4.22;;;;;;;24.22;59.02;91806.53;2045149;70;20246;-91
2023/08/01 10:49:37;;;;;;;6.65;5.00;;;;;;;23.43;60.59;91804.56;2045420;70;20669;-91
2023/08/01 10:52:04;;;;;;;5.82;4.25;;;;;;;23.47;59.26;91804.56;2045010;70;20139;-90
2023/08/01 10:54:34;;;;;;;6.22;4.40;;;;;;;23.41;59.49;91801.69;2043583;70;20178;-88
2023/08/01 10:56:59;;;;;;;5.82;4.80;;;;;;;23.91;58.96;91798.00;2041959;70;20139;-87
2023/08/01 10:59:25;;;;;;;6.25;4.53;;;;;;;24.44;58.00;91788.50;2041663;70;20149;-88
2023/08/01 11:01:53;;;;;;;5.32;4.50;;;;;;;23.78;58.88;91799.50;2041654;70;20167;-89
2023/08/01 11:04:23;;;;;;;7.22;4.70;;;;;;;24.24;58.07;91790.00;2041725;70;20135;-89
2023/08/01 11:06:53;;;;;;;5.75;4.90;;;;;;;24.17;58.65;91800.09;2038551;70;20182;-87
2023/08/01 11:09:23;;;;;;;6.40;4.20;;;;;;;24.34;58.21;91787.06;2041692;70;20246;-88
2023/08/01 11:11:58;;;;;;;4.88;4.00;;;;;;;24.64;56.50;91787.66;2041769;70;20123;-87
2023/08/01 11:14:28;;;;;;;5.93;4.13;;;;;;;24.20;56.49;91790.00;2041668;70;20146;-88
2023/08/01 11:16:55;;;;;;;4.68;3.88;;;;;;;24.05;57.77;91794.38;2041786;70;20155;-91
2023/08/01 11:19:29;;;;;;;8.57;4.40;;;;;;;24.46;59.52;91789.19;2042080;70;20254;-86
2023/08/01 11:21:56;;;;;;;6.65;4.20;;;;;;;25.05;60.65;91785.22;2041722;70;20140;-89
2023/08/01 11:24:24;;;;;;;6.63;3.72;;;;;;;27.05;56.94;91785.94;2042256;70;20246;-89
2023/08/01 11:26:51;;;;;;;4.38;3.85;;;;;;;26.84;55.54;91788.38;2044209;70;20270;-89
2023/08/01 11:29:18;;;;;;;7.00;4.30;;;;;;;27.83;52.11;91788.31;2044848;70;20553;-87